Time;durP1;ratioP1;P1;durP2;ratioP2;P2;SDS_P1;SDS_P2;PMS_P1;PMS_P2;Temp;Humidity;BMP_temperature;BMP_pressure;BME280_temperature;BME280_humidity;BME280_pressure;Samples;Min_cycle;Max_cycle;Signal;HPM_P1;HPM_P2
2022/04/06 00:00:09;;;;;;;4.28;3.00;;;10.20;99.90;;;;;;5033947;28;20247;-46
2022/04/06 00:02:37;;;;;;;9.23;3.75;;;10.20;99.90;;;;;;5033890;28;20194;-47
2022/04/06 00:05:04;;;;;;;10.18;3.55;;;10.20;99.90;;;;;;5033929;28;20199;-47
2022/04/06 00:07:29;;;;;;;7.15;3.72;;;10.20;99.90;;;;;;5033761;28;20250;-46
2022/04/06 00:09:55;;;;;;;9.60;4.65;;;10.20;99.90;;;;;;5033758;28;20258;-46
2022/04/06 00:12:21;;;;;;;6.93;3.67;;;10.20;99.90;;;;;;5034016;28;20213;-46
2022/04/06 00:14:47;;;;;;;9.73;3.42;;;10.20;99.90;;;;;;5034023;28;20503;-46
2022/04/06 00:17:13;;;;;;;11.68;4.50;;;10.20;99.90;;;;;;5033887;28;20174;-46
2022/04/06 00:19:39;;;;;;;10.70;3.60;;;10.20;99.90;;;;;;5033828;28;20180;-46
2022/04/06 00:22:06;;;;;;;9.65;3.40;;;10.20;99.90;;;;;;5033590;28;20514;-47
2022/04/06 00:24:32;;;;;;;7.13;4.15;;;10.20;99.90;;;;;;5033439;28;20601;-47
2022/04/06 00:26:58;;;;;;;9.93;3.40;;;10.10;99.90;;;;;;5033444;28;20631;-46
2022/04/06 00:29:23;;;;;;;9.90;4.18;;;10.20;99.90;;;;;;5033584;28;20210;-47
2022/04/06 00:31:49;;;;;;;10.27;3.72;;;10.10;99.90;;;;;;5033677;28;20172;-46
2022/04/06 00:34:15;;;;;;;9.25;3.70;;;10.10;99.90;;;;;;5033272;28;20628;-47
2022/04/06 00:36:40;;;;;;;6.88;2.83;;;10.10;99.90;;;;;;5033170;28;20206;-47
2022/04/06 00:39:06;;;;;;;11.35;3.63;;;10.10;99.90;;;;;;5033191;28;20195;-47
2022/04/06 00:41:32;;;;;;;7.47;2.97;;;10.10;99.90;;;;;;5033210;28;20163;-47
2022/04/06 00:44:17;;;;;;;8.52;2.92;;;10.10;99.90;;;;;;5033063;28;20679;-46
2022/04/06 00:46:45;;;;;;;15.18;3.83;;;10.10;99.90;;;;;;5032884;28;20218;-47
2022/04/06 00:49:14;;;;;;;11.88;4.35;;;10.10;99.90;;;;;;5033143;28;20179;-46
2022/04/06 00:51:42;;;;;;;10.15;3.50;;;10.10;99.90;;;;;;5033190;28;20182;-47
2022/04/06 00:54:07;;;;;;;6.18;3.33;;;10.10;99.90;;;;;;5032900;28;20545;-47
2022/04/06 00:56:34;;;;;;;10.82;3.25;;;10.10;99.90;;;;;;5033121;28;20174;-47
2022/04/06 00:59:00;;;;;;;5.07;2.35;;;10.10;99.90;;;;;;5031530;28;20202;-46
2022/04/06 01:01:25;;;;;;;12.00;3.15;;;10.00;99.90;;;;;;5032757;28;20250;-47
2022/04/06 01:03:51;;;;;;;7.20;3.00;;;10.00;99.90;;;;;;5033012;28;20289;-47
2022/04/06 01:06:16;;;;;;;10.65;3.10;;;10.00;99.90;;;;;;5033084;28;20168;-47
2022/04/06 01:08:42;;;;;;;7.60;3.00;;;10.00;99.90;;;;;;5032625;28;20182;-47
2022/04/06 01:11:08;;;;;;;10.93;3.80;;;10.00;99.90;;;;;;5032556;28;20163;-47
2022/04/06 01:13:34;;;;;;;7.93;2.42;;;10.00;99.90;;;;;;5032799;28;20182;-47
2022/04/06 01:16:00;;;;;;;4.32;2.40;;;10.00;99.90;;;;;;5032770;28;20175;-47
2022/04/06 01:18:25;;;;;;;6.72;2.60;;;10.00;99.90;;;;;;5032557;28;20229;-47
2022/04/06 01:20:51;;;;;;;8.45;2.58;;;10.10;99.90;;;;;;5032699;28;20590;-47
2022/04/06 01:23:16;;;;;;;6.47;2.83;;;10.00;99.90;;;;;;5032337;28;20260;-47
2022/04/06 01:25:42;;;;;;;8.80;3.28;;;10.00;99.90;;;;;;5032372;28;20163;-47
2022/04/06 01:28:08;;;;;;;7.05;2.90;;;10.00;99.90;;;;;;5032541;28;20172;-47
2022/04/06 01:30:33;;;;;;;7.78;2.80;;;10.00;99.90;;;;;;5032573;28;20167;-47
2022/04/06 01:33:04;;;;;;;7.78;2.33;;;10.00;99.90;;;;;;5032310;28;20163;-47
2022/04/06 01:35:30;;;;;;;7.50;2.95;;;10.00;99.90;;;;;;5032512;28;20587;-47
2022/04/06 01:37:56;;;;;;;7.90;2.95;;;10.00;99.90;;;;;;5032154;28;20203;-46
2022/04/06 01:40:21;;;;;;;7.10;2.90;;;10.00;99.90;;;;;;5032243;28;20229;-46
2022/04/06 01:42:47;;;;;;;7.13;2.92;;;10.00;99.90;;;;;;5032329;28;20249;-47
2022/04/06 01:45:12;;;;;;;7.07;2.75;;;10.00;99.90;;;;;;5032082;28;20587;-46
2022/04/06 01:47:38;;;;;;;9.50;2.83;;;10.00;99.90;;;;;;5031699;28;20219;-47
2022/04/06 01:52:49;;;;;;;14.55;3.63;;;9.90;99.90;;;;;;5032515;28;20173;-47
2022/04/06 01:55:15;;;;;;;8.63;2.88;;;10.00;99.90;;;;;;5032195;28;20309;-47
2022/04/06 01:57:42;;;;;;;9.98;2.80;;;10.00;99.90;;;;;;5032156;28;20534;-46
2022/04/06 02:00:10;;;;;;;7.88;2.80;;;9.90;99.90;;;;;;5031906;28;20217;-46
2022/04/06 02:02:37;;;;;;;7.90;3.05;;;9.90;99.90;;;;;;5031670;28;20226;-47
2022/04/06 02:05:04;;;;;;;12.73;2.85;;;9.90;99.90;;;;;;5031850;28;20174;-47
2022/04/06 02:07:29;;;;;;;7.25;3.35;;;9.90;99.90;;;;;;5031896;28;20209;-47
2022/04/06 02:09:58;;;;;;;9.05;3.47;;;9.90;99.90;;;;;;5032128;28;20203;-47
2022/04/06 02:12:24;;;;;;;5.78;3.10;;;9.90;99.90;;;;;;5031829;28;20187;-47
2022/04/06 02:14:50;;;;;;;7.60;3.03;;;9.90;99.90;;;;;;5032026;28;20207;-47
2022/04/06 02:17:16;;;;;;;3.88;2.83;;;9.90;99.90;;;;;;5031754;28;20225;-47
2022/04/06 02:19:41;;;;;;;6.32;2.70;;;9.90;99.90;;;;;;5031928;28;20172;-46
2022/04/06 02:22:07;;;;;;;4.13;2.60;;;9.90;99.90;;;;;;5031697;28;20219;-47
2022/04/06 02:24:34;;;;;;;7.53;2.80;;;9.90;99.90;;;;;;5031583;28;20721;-46
2022/04/06 02:27:00;;;;;;;8.80;3.00;;;9.90;99.90;;;;;;5031669;28;20195;-47
2022/04/06 02:29:26;;;;;;;8.52;2.72;;;9.90;99.90;;;;;;5031861;28;20179;-46
2022/04/06 02:31:52;;;;;;;9.63;3.13;;;9.90;99.90;;;;;;5031620;28;20241;-46
2022/04/06 02:34:18;;;;;;;6.70;3.03;;;9.90;99.90;;;;;;5032107;28;20186;-46
2022/04/06 02:36:44;;;;;;;7.25;2.95;;;9.90;99.90;;;;;;5031599;28;20164;-47
2022/04/06 02:39:09;;;;;;;11.77;3.85;;;9.90;99.90;;;;;;5031604;28;20582;-47
2022/04/06 02:41:35;;;;;;;9.02;3.70;;;9.90;99.90;;;;;;5031814;28;20532;-46
2022/04/06 02:44:00;;;;;;;6.03;2.58;;;9.90;99.90;;;;;;5031433;28;20203;-46
2022/04/06 02:46:26;;;;;;;11.15;3.00;;;9.90;99.90;;;;;;5031470;28;20171;-46
2022/04/06 02:48:51;;;;;;;6.60;2.92;;;9.90;99.90;;;;;;5031695;28;20226;-46
2022/04/06 02:51:17;;;;;;;7.65;3.40;;;9.90;99.90;;;;;;5032039;28;20171;-46
2022/04/06 02:53:42;;;;;;;5.93;2.58;;;9.90;99.90;;;;;;5031427;28;20171;-46
2022/04/06 02:56:08;;;;;;;8.18;2.53;;;9.90;99.90;;;;;;5031463;28;20171;-46
2022/04/06 02:58:34;;;;;;;6.38;2.97;;;9.90;99.90;;;;;;5031375;28;20167;-46
2022/04/06 03:00:59;;;;;;;7.68;3.20;;;9.90;99.90;;;;;;5032959;28;20178;-46
2022/04/06 03:03:25;;;;;;;5.68;2.63;;;9.80;99.90;;;;;;5034972;28;20215;-46
2022/04/06 03:05:51;;;;;;;4.82;3.47;;;9.80;99.90;;;;;;5035474;28;20326;-46
2022/04/06 03:08:17;;;;;;;8.43;3.60;;;9.80;99.90;;;;;;5035201;28;20590;-46
2022/04/06 03:10:42;;;;;;;9.15;3.67;;;9.80;99.90;;;;;;5034876;28;20631;-46
2022/04/06 03:13:09;;;;;;;7.75;2.97;;;9.80;99.90;;;;;;5034852;28;20556;-46
2022/04/06 03:15:34;;;;;;;3.95;2.97;;;9.80;99.90;;;;;;5035081;28;20179;-46
2022/04/06 03:18:00;;;;;;;4.05;2.47;;;9.80;99.90;;;;;;5034817;28;20585;-46
2022/04/06 03:20:25;;;;;;;6.55;3.00;;;9.80;99.90;;;;;;5034709;28;20542;-46
2022/04/06 03:22:51;;;;;;;7.75;2.47;;;9.80;99.90;;;;;;5034947;28;20210;-46
2022/04/06 03:25:17;;;;;;;9.00;2.85;;;9.80;99.90;;;;;;5033375;28;20185;-46
2022/04/06 03:27:42;;;;;;;5.95;2.85;;;9.80;99.90;;;;;;5034576;28;20198;-46
2022/04/06 03:30:11;;;;;;;6.22;3.33;;;9.80;99.90;;;;;;5034564;28;20175;-46
2022/04/06 03:32:37;;;;;;;12.68;3.72;;;9.80;99.90;;;;;;5034915;28;20187;-46
2022/04/06 03:35:03;;;;;;;8.30;3.53;;;9.80;99.90;;;;;;5034506;28;20749;-46
2022/04/06 03:37:29;;;;;;;5.38;2.50;;;9.80;99.90;;;;;;5034549;28;20174;-46
2022/04/06 03:39:55;;;;;;;10.13;4.25;;;9.80;99.90;;;;;;5034409;28;20175;-46
2022/04/06 03:42:21;;;;;;;4.82;2.67;;;9.80;99.90;;;;;;5034591;28;20167;-46
2022/04/06 03:44:46;;;;;;;8.27;3.05;;;9.70;99.90;;;;;;5034572;28;20182;-46
2022/04/06 03:47:12;;;;;;;9.10;3.17;;;9.70;99.90;;;;;;5034164;28;20238;-46
2022/04/06 03:49:37;;;;;;;7.60;2.83;;;9.80;99.90;;;;;;5034222;28;20167;-46
2022/04/06 03:52:03;;;;;;;9.20;3.28;;;9.80;99.90;;;;;;5034235;28;20218;-46
2022/04/06 03:54:29;;;;;;;4.50;3.25;;;9.70;99.90;;;;;;5032886;28;20172;-46
2022/04/06 03:56:54;;;;;;;8.50;3.67;;;9.70;99.90;;;;;;5034090;28;20698;-46
2022/04/06 03:59:20;;;;;;;8.25;3.22;;;9.70;99.90;;;;;;5034335;28;20229;-46
2022/04/06 04:01:46;;;;;;;7.57;3.55;;;9.70;99.90;;;;;;5033970;28;20186;-46
2022/04/06 04:04:12;;;;;;;7.93;3.83;;;9.70;99.90;;;;;;5033757;28;20238;-46
2022/04/06 04:06:37;;;;;;;8.95;3.22;;;9.70;99.90;;;;;;5034189;28;20179;-46
2022/04/06 04:09:03;;;;;;;3.58;2.60;;;9.70;99.90;;;;;;5033914;28;20671;-46
2022/04/06 04:11:30;;;;;;;7.45;3.25;;;9.70;99.90;;;;;;5033293;28;20216;-46
2022/04/06 04:13:56;;;;;;;8.73;3.00;;;9.70;99.90;;;;;;5033756;28;20174;-46
2022/04/06 04:16:22;;;;;;;4.28;2.72;;;9.70;99.90;;;;;;5034082;28;20217;-45
2022/04/06 04:18:47;;;;;;;5.05;2.35;;;9.70;99.90;;;;;;5033969;28;20206;-45
2022/04/06 04:23:57;;;;;;;4.25;2.47;;;9.70;99.90;;;;;;5033611;28;20624;-46
2022/04/06 04:26:22;;;;;;;5.28;2.53;;;9.70;99.90;;;;;;5033476;28;20164;-46
2022/04/06 04:28:48;;;;;;;4.45;2.72;;;9.70;99.90;;;;;;5033701;28;20170;-46
2022/04/06 04:31:14;;;;;;;6.18;2.80;;;9.70;99.90;;;;;;5033447;28;20171;-46
2022/04/06 04:33:39;;;;;;;6.05;3.50;;;9.70;99.90;;;;;;5033267;28;20175;-46
2022/04/06 04:36:05;;;;;;;10.30;3.35;;;9.70;99.90;;;;;;5033306;28;20174;-45
2022/04/06 04:38:30;;;;;;;4.65;2.47;;;9.70;99.90;;;;;;5033353;28;20175;-46
2022/04/06 04:40:57;;;;;;;7.18;3.00;;;9.70;99.90;;;;;;5033441;28;20179;-46
2022/04/06 04:43:22;;;;;;;6.50;2.63;;;9.70;99.90;;;;;;5031825;28;20302;-46
2022/04/06 04:45:48;;;;;;;7.10;3.10;;;9.60;99.90;;;;;;5033802;28;20239;-46
2022/04/06 04:48:14;;;;;;;5.53;2.90;;;9.70;99.90;;;;;;5032965;28;20215;-45
2022/04/06 04:50:39;;;;;;;9.38;3.03;;;9.60;99.90;;;;;;5033140;28;20168;-47
2022/04/06 04:53:05;;;;;;;7.13;2.97;;;9.60;99.90;;;;;;5032978;28;20167;-47
2022/04/06 04:55:32;;;;;;;5.20;2.63;;;9.60;99.90;;;;;;5033122;28;20175;-46
2022/04/06 04:57:58;;;;;;;8.90;2.40;;;9.60;99.90;;;;;;5033090;28;20601;-47
2022/04/06 05:00:23;;;;;;;9.10;2.85;;;9.60;99.90;;;;;;5032843;28;20168;-46
2022/04/06 05:02:49;;;;;;;6.82;2.95;;;9.60;99.90;;;;;;5032696;28;20195;-47
2022/04/06 05:05:14;;;;;;;6.05;2.53;;;9.60;99.90;;;;;;5032770;28;20172;-47
2022/04/06 05:07:40;;;;;;;7.25;3.40;;;9.60;99.90;;;;;;5032622;28;20246;-46
2022/04/06 05:10:07;;;;;;;13.00;4.30;;;9.60;99.90;;;;;;5032463;28;20179;-46
2022/04/06 05:12:33;;;;;;;7.78;2.75;;;9.50;99.90;;;;;;5032609;28;20623;-47
2022/04/06 05:14:59;;;;;;;7.72;3.22;;;9.50;99.90;;;;;;5032584;28;20309;-46
2022/04/06 05:17:25;;;;;;;6.10;3.13;;;9.50;99.90;;;;;;5032466;28;20627;-46
2022/04/06 05:19:52;;;;;;;6.78;3.33;;;9.50;99.90;;;;;;5031547;28;20213;-45
2022/04/06 05:22:17;;;;;;;7.70;2.65;;;9.60;99.90;;;;;;5032676;28;20171;-46
2022/04/06 05:24:43;;;;;;;4.32;3.00;;;9.60;99.90;;;;;;5031707;28;20203;-46
2022/04/06 05:27:08;;;;;;;7.38;2.65;;;9.60;99.90;;;;;;5032340;28;20250;-46
2022/04/06 05:29:34;;;;;;;9.63;2.90;;;9.60;99.90;;;;;;5032375;28;20253;-46
2022/04/06 05:32:00;;;;;;;5.55;3.17;;;9.60;99.90;;;;;;5032509;28;20163;-46
2022/04/06 05:34:26;;;;;;;7.43;2.70;;;9.50;99.90;;;;;;5032303;28;20180;-45
2022/04/06 05:36:51;;;;;;;4.03;2.65;;;9.60;99.90;;;;;;5032506;28;20233;-46
2022/04/06 05:39:17;;;;;;;6.35;2.83;;;9.60;99.90;;;;;;5031711;28;20704;-46
2022/04/06 05:41:42;;;;;;;7.30;2.63;;;9.60;99.90;;;;;;5032024;28;20198;-46
2022/04/06 05:44:08;;;;;;;10.65;3.28;;;9.60;99.90;;;;;;5030594;28;20577;-45
2022/04/06 05:46:33;;;;;;;7.40;2.20;;;9.60;99.90;;;;;;5031859;28;20174;-46
2022/04/06 05:48:59;;;;;;;11.35;2.70;;;9.60;99.90;;;;;;5031986;28;20232;-45
2022/04/06 05:51:24;;;;;;;10.85;3.83;;;9.60;99.90;;;;;;5031914;28;20171;-45
2022/04/06 05:53:50;;;;;;;7.47;3.08;;;9.70;99.90;;;;;;5032220;28;20649;-45
2022/04/06 05:56:16;;;;;;;6.10;2.55;;;9.60;99.90;;;;;;5032299;28;20167;-45
2022/04/06 05:58:42;;;;;;;7.60;3.03;;;9.60;99.90;;;;;;5031804;28;20597;-45
2022/04/06 06:01:08;;;;;;;5.30;2.17;;;9.60;99.90;;;;;;5032123;28;20226;-46
2022/04/06 06:03:34;;;;;;;12.25;2.53;;;9.60;99.90;;;;;;5031981;28;20646;-46
2022/04/06 06:06:00;;;;;;;4.00;2.65;;;9.60;99.90;;;;;;5031817;28;20170;-46
2022/04/06 06:08:26;;;;;;;2.85;1.92;;;9.60;99.90;;;;;;5031871;28;20175;-46
2022/04/06 06:10:52;;;;;;;6.20;2.17;;;9.60;99.90;;;;;;5031763;28;20190;-45
2022/04/06 06:13:17;;;;;;;7.93;2.58;;;9.60;99.90;;;;;;5032195;28;20215;-46
2022/04/06 06:15:43;;;;;;;9.07;2.33;;;9.60;99.90;;;;;;5031851;28;20193;-47
2022/04/06 06:18:08;;;;;;;7.15;2.25;;;9.60;99.90;;;;;;5031653;28;20623;-46
2022/04/06 06:20:35;;;;;;;5.10;1.90;;;9.60;99.90;;;;;;5031691;28;20164;-46
2022/04/06 06:23:00;;;;;;;7.40;2.47;;;9.70;99.90;;;;;;5031643;28;20187;-47
2022/04/06 06:25:26;;;;;;;7.43;2.28;;;9.70;99.90;;;;;;5031672;28;20175;-47
2022/04/06 06:27:52;;;;;;;3.80;1.73;;;9.70;99.90;;;;;;5031873;28;20172;-45
2022/04/06 06:30:18;;;;;;;3.78;2.83;;;9.70;99.90;;;;;;5032186;28;20179;-46
2022/04/06 06:32:44;;;;;;;9.57;2.10;;;9.70;99.90;;;;;;5031605;28;20167;-46
2022/04/06 06:35:10;;;;;;;5.55;2.03;;;9.70;99.90;;;;;;5033545;28;20182;-46
2022/04/06 06:37:36;;;;;;;6.97;2.20;;;9.70;99.90;;;;;;5035837;28;20316;-46
2022/04/06 06:40:03;;;;;;;5.05;1.77;;;9.70;99.90;;;;;;5035442;28;20171;-55
2022/04/06 06:42:29;;;;;;;5.25;1.70;;;9.70;99.90;;;;;;5035596;28;20246;-47
2022/04/06 06:44:54;;;;;;;3.42;1.52;;;9.70;99.90;;;;;;5035438;28;20579;-47
2022/04/06 06:47:20;;;;;;;7.90;2.45;;;9.70;99.90;;;;;;5035513;28;20281;-47
2022/04/06 06:49:46;;;;;;;8.95;2.42;;;9.80;99.90;;;;;;5035225;28;20697;-47
2022/04/06 06:52:15;;;;;;;4.68;1.73;;;9.80;99.90;;;;;;5035441;28;20194;-47
2022/04/06 06:54:41;;;;;;;3.88;2.20;;;9.80;99.90;;;;;;5035478;28;20573;-47
2022/04/06 06:57:06;;;;;;;5.20;2.08;;;9.80;99.90;;;;;;5035198;28;20179;-47
2022/04/06 06:59:32;;;;;;;8.52;1.83;;;9.90;99.90;;;;;;5035096;28;20164;-47
2022/04/06 07:01:57;;;;;;;7.45;2.60;;;9.90;99.90;;;;;;5035123;28;20214;-47
2022/04/06 07:04:23;;;;;;;3.33;2.03;;;9.90;99.90;;;;;;5034960;28;20199;-47
2022/04/06 07:06:49;;;;;;;7.90;2.10;;;10.00;99.90;;;;;;5035189;28;20521;-46
2022/04/06 07:09:15;;;;;;;6.20;2.25;;;10.00;99.90;;;;;;5034990;28;20176;-47
2022/04/06 07:11:41;;;;;;;8.48;2.20;;;10.00;99.90;;;;;;5034898;28;20155;-47
2022/04/06 07:14:07;;;;;;;6.03;2.35;;;10.10;99.90;;;;;;5033649;28;20214;-47
2022/04/06 07:16:32;;;;;;;2.95;2.10;;;10.10;99.90;;;;;;5034862;28;20186;-47
2022/04/06 07:18:58;;;;;;;5.03;1.90;;;10.10;99.90;;;;;;5034732;28;20167;-47
2022/04/06 07:21:24;;;;;;;5.20;2.03;;;10.00;99.90;;;;;;5034879;28;20182;-47
2022/04/06 07:23:49;;;;;;;2.80;1.70;;;10.10;99.90;;;;;;5034903;28;20227;-47
2022/04/06 07:26:16;;;;;;;5.45;1.70;;;10.10;99.90;;;;;;5034597;28;20168;-48
2022/04/06 07:28:44;;;;;;;2.65;1.67;;;10.10;99.90;;;;;;5034960;28;20258;-47
2022/04/06 07:31:13;;;;;;;5.57;2.30;;;10.20;99.90;;;;;;5034577;28;20518;-47
2022/04/06 07:33:40;;;;;;;5.95;2.20;;;10.20;99.90;;;;;;5034826;28;20179;-47
2022/04/06 07:36:08;;;;;;;4.13;1.80;;;10.20;99.90;;;;;;5034705;28;20197;-47
2022/04/06 07:38:34;;;;;;;4.28;1.83;;;10.20;99.90;;;;;;5033156;28;20175;-47
2022/04/06 07:40:59;;;;;;;2.30;1.75;;;10.10;99.90;;;;;;5034390;28;20171;-47
2022/04/06 07:43:25;;;;;;;3.10;1.60;;;10.30;99.90;;;;;;5034476;28;20191;-47
2022/04/06 07:45:51;;;;;;;4.03;1.83;;;10.20;99.90;;;;;;5032499;28;20198;-47
2022/04/06 07:48:17;;;;;;;1.63;1.40;;;10.20;99.90;;;;;;5034266;28;20219;-47
2022/04/06 07:50:42;;;;;;;4.80;1.40;;;10.20;99.90;;;;;;5034077;28;20195;-47
2022/04/06 07:53:08;;;;;;;2.20;1.55;;;10.10;99.90;;;;;;5034138;28;20168;-47
2022/04/06 07:55:33;;;;;;;6.05;1.70;;;10.10;99.90;;;;;;5034149;28;20179;-47
2022/04/06 07:58:00;;;;;;;4.68;1.70;;;10.10;99.90;;;;;;5034076;28;20258;-47
2022/04/06 08:00:26;;;;;;;3.08;1.52;;;10.10;99.90;;;;;;5034299;28;20245;-46
2022/04/06 08:02:51;;;;;;;4.10;1.92;;;10.10;99.90;;;;;;5034359;28;20256;-46
2022/04/06 08:05:18;;;;;;;3.28;1.40;;;10.20;99.90;;;;;;5034177;28;20164;-47
2022/04/06 08:07:45;;;;;;;4.10;1.17;;;10.20;99.90;;;;;;5034078;28;20248;-47
2022/04/06 08:10:16;;;;;;;3.53;1.42;;;10.20;99.90;;;;;;5033809;28;20167;-46
2022/04/06 08:12:42;;;;;;;3.72;1.30;;;10.20;99.90;;;;;;5033731;28;20670;-46
2022/04/06 08:15:09;;;;;;;4.85;1.55;;;10.20;99.90;;;;;;5033909;28;20206;-46
2022/04/06 08:17:38;;;;;;;4.85;1.58;;;10.30;99.90;;;;;;5033694;28;20155;-46
2022/04/06 08:20:05;;;;;;;4.93;1.48;;;10.30;99.90;;;;;;5033721;28;20167;-46
2022/04/06 08:22:31;;;;;;;1.73;1.13;;;10.30;99.90;;;;;;5033442;28;20163;-46
2022/04/06 08:24:57;;;;;;;6.05;1.77;;;10.30;99.90;;;;;;5033555;28;20186;-46
2022/04/06 08:27:22;;;;;;;4.55;1.40;;;10.40;99.90;;;;;;5033480;28;20270;-46
2022/04/06 08:29:48;;;;;;;3.50;1.55;;;10.40;99.90;;;;;;5033846;28;20164;-46
2022/04/06 08:32:14;;;;;;;3.40;1.40;;;10.40;99.90;;;;;;5033395;28;20216;-46
2022/04/06 08:34:40;;;;;;;4.80;1.70;;;10.40;99.90;;;;;;5033566;28;20175;-46
2022/04/06 08:37:08;;;;;;;6.88;1.42;;;10.30;99.90;;;;;;5033289;28;20170;-46
2022/04/06 08:39:33;;;;;;;3.33;1.73;;;10.40;99.90;;;;;;5033232;28;20648;-46
2022/04/06 08:42:00;;;;;;;4.25;1.50;;;10.30;99.90;;;;;;5033173;28;20164;-46
2022/04/06 08:44:26;;;;;;;4.10;1.80;;;10.30;99.90;;;;;;5033077;28;20691;-45
2022/04/06 08:46:55;;;;;;;2.83;1.00;;;10.40;99.90;;;;;;5033317;28;20231;-45
2022/04/06 08:49:23;;;;;;;5.40;1.75;;;10.30;99.90;;;;;;5033355;28;20646;-45
2022/04/06 08:51:51;;;;;;;3.20;1.67;;;10.30;99.90;;;;;;5033439;28;20167;-45
2022/04/06 08:54:16;;;;;;;2.85;1.50;;;10.40;99.90;;;;;;5032932;28;20176;-45
2022/04/06 08:56:43;;;;;;;4.45;1.40;;;10.40;99.90;;;;;;5032952;28;20305;-46
2022/04/06 08:59:09;;;;;;;6.28;1.42;;;10.40;99.90;;;;;;5032855;28;20171;-46
2022/04/06 09:01:34;;;;;;;2.80;1.50;;;10.40;99.90;;;;;;5032944;28;20254;-47
2022/04/06 09:04:00;;;;;;;2.30;1.10;;;10.40;99.90;;;;;;5032982;28;20325;-47
2022/04/06 09:06:31;;;;;;;3.17;1.33;;;10.50;99.90;;;;;;5032878;28;20178;-47
2022/04/06 09:08:57;;;;;;;3.70;1.30;;;10.60;99.90;;;;;;5033021;28;20262;-46
2022/04/06 09:11:22;;;;;;;10.60;1.90;;;10.80;99.90;;;;;;5032796;28;20195;-45
2022/04/06 09:14:02;;;;;;;3.80;1.15;;;10.90;99.90;;;;;;5033064;28;20202;-45
2022/04/06 09:16:34;;;;;;;5.88;1.77;;;10.80;99.90;;;;;;5032650;28;20163;-45
2022/04/06 09:19:13;;;;;;;9.80;1.77;;;10.90;99.90;;;;;;5032654;28;20171;-45
2022/04/06 09:21:40;;;;;;;4.75;1.60;;;11.10;99.90;;;;;;5032471;28;20168;-45
2022/04/06 09:24:16;;;;;;;6.25;1.52;;;11.10;99.90;;;;;;5032513;28;20675;-45
2022/04/06 09:26:42;;;;;;;3.45;0.98;;;11.00;99.90;;;;;;5032466;28;20195;-45
2022/04/06 09:29:12;;;;;;;6.38;1.52;;;11.10;99.90;;;;;;5032375;28;20210;-45
2022/04/06 09:31:39;;;;;;;3.13;1.88;;;11.10;99.90;;;;;;5032507;28;20175;-45
2022/04/06 09:34:05;;;;;;;4.95;2.13;;;11.20;99.90;;;;;;5032305;28;20251;-46
2022/04/06 09:36:31;;;;;;;4.95;1.65;;;11.40;99.90;;;;;;5032311;28;20205;-45
2022/04/06 09:38:58;;;;;;;5.00;1.80;;;11.50;99.90;;;;;;5032512;28;20202;-45
2022/04/06 09:41:25;;;;;;;5.60;1.38;;;11.60;99.90;;;;;;5032170;28;20263;-45
2022/04/06 09:43:55;;;;;;;7.65;1.50;;;11.70;99.90;;;;;;5032694;28;20242;-45
2022/04/06 09:49:14;;;;;;;4.53;2.40;;;11.80;99.90;;;;;;5032421;28;20206;-45
2022/04/06 09:51:42;;;;;;;8.80;1.80;;;11.70;99.90;;;;;;5032083;28;20538;-45
2022/04/06 09:54:12;;;;;;;3.13;1.45;;;11.70;99.90;;;;;;5031991;28;20625;-45
2022/04/06 09:56:37;;;;;;;4.93;1.52;;;11.80;99.90;;;;;;5032037;28;20174;-45
2022/04/06 09:59:04;;;;;;;8.00;2.17;;;11.80;99.90;;;;;;5032006;28;20530;-45
2022/04/06 10:01:34;;;;;;;2.38;1.30;;;11.70;99.90;;;;;;5031877;28;20175;-45
2022/04/06 10:04:05;;;;;;;4.32;1.52;;;11.80;99.90;;;;;;5031850;28;20211;-45
2022/04/06 10:06:35;;;;;;;4.50;1.50;;;11.80;99.90;;;;;;5031926;28;20254;-45
2022/04/06 10:09:05;;;;;;;4.63;1.60;;;11.60;99.90;;;;;;5032886;28;20171;-45
2022/04/06 10:11:32;;;;;;;2.55;1.20;;;11.70;99.90;;;;;;5038418;28;20204;-45
2022/04/06 10:14:00;;;;;;;6.07;1.63;;;11.50;99.90;;;;;;5038506;28;20250;-45
2022/04/06 10:16:27;;;;;;;4.63;1.40;;;11.40;99.90;;;;;;5037060;28;20572;-45
2022/04/06 10:18:54;;;;;;;4.43;1.88;;;11.40;99.90;;;;;;5038383;28;20174;-45
2022/04/06 10:21:53;;;;;;;5.53;1.63;;;11.40;99.90;;;;;;5038949;28;20178;-45
2022/04/06 10:24:37;;;;;;;3.95;1.25;;;11.50;99.90;;;;;;5038867;28;20511;-45
2022/04/06 10:27:23;;;;;;;3.97;1.50;;;11.40;99.90;;;;;;5038615;28;20177;-45
2022/04/06 10:30:07;;;;;;;2.25;1.08;;;11.50;99.90;;;;;;5038596;28;20183;-45
2022/04/06 10:32:44;;;;;;;4.78;1.65;;;11.50;99.90;;;;;;5038365;28;20698;-45
2022/04/06 10:35:21;;;;;;;4.97;1.40;;;11.50;99.90;;;;;;5038553;28;20197;-45
2022/04/06 10:38:14;;;;;;;2.50;1.30;;;11.60;99.90;;;;;;5038653;28;20242;-45
2022/04/06 10:40:46;;;;;;;2.15;1.48;;;11.60;99.90;;;;;;5038517;28;20168;-45
2022/04/06 10:43:43;;;;;;;3.10;1.52;;;11.70;99.90;;;;;;5038131;28;20222;-45
2022/04/06 10:46:14;;;;;;;2.20;1.30;;;11.70;99.90;;;;;;5038339;28;20175;-45
2022/04/06 10:49:15;;;;;;;3.15;1.63;;;11.70;99.90;;;;;;5038074;28;20210;-46
2022/04/06 10:51:48;;;;;;;3.85;1.67;;;11.90;99.90;;;;;;5038335;28;20290;-45
2022/04/06 10:54:14;;;;;;;2.75;1.10;;;11.80;99.90;;;;;;5038333;28;20179;-45
2022/04/06 10:56:51;;;;;;;4.63;1.27;;;11.90;99.90;;;;;;5038335;28;20213;-45
2022/04/06 10:59:23;;;;;;;2.97;1.30;;;12.00;99.90;;;;;;5038392;28;20213;-45
2022/04/06 11:02:10;;;;;;;2.67;1.33;;;12.20;99.90;;;;;;5037029;28;20634;-45
2022/04/06 11:04:42;;;;;;;3.90;1.30;;;12.50;99.90;;;;;;5037394;28;20223;-46
2022/04/06 11:07:08;;;;;;;2.95;1.50;;;12.30;99.90;;;;;;5037901;28;20217;-45
2022/04/06 12:03:35;;;;;;;3.45;1.60;;;12.90;99.90;;;;;;5109453;27;20488;-44
2022/04/06 12:06:03;;;;;;;1.80;1.35;;;12.50;99.90;;;;;;5089334;28;20183;-47
2022/04/06 12:08:31;;;;;;;5.70;1.17;;;12.60;99.90;;;;;;5089244;28;20161;-46
2022/04/06 12:10:58;;;;;;;3.83;1.70;;;12.60;99.90;;;;;;5089001;28;20197;-44
2022/04/06 12:13:25;;;;;;;7.10;1.48;;;12.50;99.90;;;;;;5088819;28;20218;-46
2022/04/06 12:15:54;;;;;;;3.47;1.73;;;12.50;99.90;;;;;;5089095;28;20218;-47
2022/04/06 12:18:20;;;;;;;3.53;1.30;;;12.50;99.90;;;;;;5089066;28;20157;-47
2022/04/06 12:20:47;;;;;;;2.33;1.63;;;12.50;99.90;;;;;;5089022;28;20245;-44
2022/04/06 12:23:14;;;;;;;1.85;1.20;;;12.70;99.90;;;;;;5089437;28;20177;-44
2022/04/06 12:25:40;;;;;;;9.35;6.30;;;12.60;99.90;;;;;;5089258;28;20170;-45
2022/04/06 12:28:12;;;;;;;3.63;1.60;;;12.40;99.90;;;;;;5088433;28;20184;-45
2022/04/06 12:30:57;;;;;;;1.27;1.17;;;12.20;99.90;;;;;;5085469;28;20166;-46
2022/04/06 12:33:48;;;;;;;5.80;1.10;;;12.20;99.90;;;;;;5088630;28;20177;-45
2022/04/06 12:36:23;;;;;;;3.40;1.20;;;12.20;99.90;;;;;;5088289;28;20319;-45
2022/04/06 12:39:10;;;;;;;3.67;1.50;;;12.30;99.90;;;;;;5088684;28;20169;-45
2022/04/06 12:41:52;;;;;;;1.10;1.00;;;12.40;99.90;;;;;;5088599;28;20196;-45
2022/04/06 12:44:17;;;;;;;5.47;1.30;;;12.30;99.90;;;;;;5088666;28;20252;-45
2022/04/06 12:46:45;;;;;;;2.40;1.42;;;12.30;99.90;;;;;;5088599;28;20260;-45
2022/04/06 12:49:17;;;;;;;3.22;1.40;;;12.20;99.90;;;;;;5086957;28;20264;-45
2022/04/06 12:51:43;;;;;;;1.85;1.52;;;12.10;99.90;;;;;;5088633;28;20239;-45
2022/04/06 12:54:08;;;;;;;1.33;0.95;;;12.20;99.90;;;;;;5088216;28;20170;-45
2022/04/06 12:56:34;;;;;;;1.10;1.00;;;12.10;99.90;;;;;;5088118;28;20539;-45
2022/04/06 12:59:08;;;;;;;3.60;1.20;;;12.10;99.90;;;;;;5088130;28;20630;-45
2022/04/06 13:01:42;;;;;;;1.55;1.00;;;12.00;99.90;;;;;;5087952;28;20219;-45
2022/04/06 13:04:07;;;;;;;1.95;1.30;;;11.90;99.90;;;;;;5076119;28;20515;-45
2022/04/06 13:06:33;;;;;;;4.88;1.30;;;11.80;99.90;;;;;;5074432;28;20184;-45
2022/04/06 13:08:59;;;;;;;1.50;1.30;;;11.90;99.90;;;;;;5074296;28;20164;-45
2022/04/06 13:11:24;;;;;;;2.97;1.30;;;11.80;99.90;;;;;;5073973;28;20206;-45
2022/04/06 13:13:50;;;;;;;3.65;1.17;;;11.90;99.90;;;;;;5073505;28;20223;-45
2022/04/06 13:16:15;;;;;;;2.63;1.52;;;11.90;99.90;;;;;;5073845;28;20174;-45
2022/04/06 13:18:41;;;;;;;1.27;1.05;;;12.00;99.90;;;;;;5074997;28;20166;-45
2022/04/06 13:21:06;;;;;;;4.55;2.05;;;12.00;99.90;;;;;;5074400;28;20201;-45
2022/04/06 13:23:32;;;;;;;2.45;1.27;;;12.10;99.90;;;;;;5074246;28;20176;-45
2022/04/06 13:26:00;;;;;;;5.68;1.77;;;12.20;99.90;;;;;;5074308;28;20170;-45
2022/04/06 13:28:25;;;;;;;1.90;1.27;;;12.10;99.90;;;;;;5074356;28;20682;-45
2022/04/06 13:30:51;;;;;;;3.13;1.08;;;12.10;99.90;;;;;;5074231;28;20372;-45
2022/04/06 13:33:17;;;;;;;2.80;1.08;;;12.00;99.90;;;;;;5072712;28;20542;-45
2022/04/06 13:35:43;;;;;;;5.20;1.60;;;12.00;99.90;;;;;;5074336;28;20166;-45
2022/04/06 13:38:09;;;;;;;1.92;1.17;;;12.00;99.90;;;;;;5074231;28;20170;-44
2022/04/06 13:40:35;;;;;;;2.85;1.55;;;11.80;99.90;;;;;;5074195;28;20177;-44
2022/04/06 13:43:00;;;;;;;4.32;1.33;;;11.90;99.90;;;;;;5074154;28;20162;-45
2022/04/06 13:45:26;;;;;;;2.92;1.60;;;11.90;99.90;;;;;;5073423;28;20211;-45
2022/04/06 13:47:51;;;;;;;4.30;1.88;;;12.00;99.90;;;;;;5073767;28;20259;-45
2022/04/06 13:50:19;;;;;;;3.00;1.70;;;11.90;99.90;;;;;;5073847;28;20162;-45
2022/04/06 13:52:44;;;;;;;1.23;1.13;;;11.90;99.90;;;;;;5073950;28;20205;-45